Time;durP1;ratioP1;P1;durP2;ratioP2;P2;SDS_P1;SDS_P2;PMS_P1;PMS_P2;Temp;Humidity;BMP_temperature;BMP_pressure;BME280_temperature;BME280_humidity;BME280_pressure;Samples;Min_cycle;Max_cycle;Signal;HPM_P1;HPM_P2
2022/09/10 00:01:43;;;;;;;0.10;0.10;;;14.30;99.90;;;;;;5115136;28;20557;-73
2022/09/10 00:04:11;;;;;;;2.63;1.20;;;14.30;99.90;;;;;;5114915;28;20055;-74
2022/09/10 00:06:37;;;;;;;0.57;0.20;;;14.30;99.90;;;;;;5115031;28;20061;-75
2022/09/10 00:09:04;;;;;;;2.65;0.88;;;14.30;99.90;;;;;;5115079;28;20035;-74
2022/09/10 00:11:33;;;;;;;0.17;0.17;;;14.20;99.90;;;;;;5115166;28;20048;-74
2022/09/10 00:14:01;;;;;;;0.90;0.38;;;14.10;99.90;;;;;;5114836;28;20020;-74
2022/09/10 00:16:28;;;;;;;0.30;0.30;;;14.10;99.90;;;;;;5114939;28;20026;-74
2022/09/10 00:18:56;;;;;;;0.57;0.20;;;14.20;99.90;;;;;;5096439;28;20577;-74
2022/09/10 00:21:24;;;;;;;1.45;0.52;;;14.50;99.90;;;;;;5096332;28;20059;-74
2022/09/10 00:23:50;;;;;;;0.38;0.38;;;14.80;99.90;;;;;;5114477;28;20023;-74
2022/09/10 00:26:20;;;;;;;0.20;0.20;;;14.90;99.90;;;;;;5095797;28;20031;-74
2022/09/10 00:28:47;;;;;;;2.17;0.30;;;14.90;99.90;;;;;;5096086;28;20039;-76
2022/09/10 00:31:13;;;;;;;0.40;0.40;;;15.20;99.90;;;;;;5114821;28;20037;-73
2022/09/10 00:33:39;;;;;;;0.10;0.10;;;15.30;99.90;;;;;;5114943;28;20035;-73
2022/09/10 00:36:14;;;;;;;0.50;0.28;;;15.40;99.90;;;;;;5114428;28;20098;-74
2022/09/10 00:38:40;;;;;;;0.20;0.20;;;15.40;99.90;;;;;;5114471;28;20051;-73
2022/09/10 00:41:07;;;;;;;0.90;0.75;;;15.60;99.90;;;;;;5114265;28;20530;-73
2022/09/10 00:43:48;;;;;;;0.20;0.20;;;15.60;99.90;;;;;;5114180;28;20075;-73
2022/09/10 00:46:26;;;;;;;0.10;0.10;;;15.60;99.90;;;;;;5114283;28;20055;-74
2022/09/10 00:48:57;;;;;;;0.70;0.20;;;15.80;99.90;;;;;;5114176;28;20035;-74
2022/09/10 00:51:25;;;;;;;0.10;0.10;;;15.90;99.90;;;;;;5114383;28;20048;-73
2022/09/10 00:53:52;;;;;;;0.00;0.00;;;15.90;99.90;;;;;;5114424;28;20027;-75
2022/09/10 00:56:18;;;;;;;9.27;0.32;;;15.90;99.90;;;;;;5114848;28;20031;-73
2022/09/10 00:58:46;;;;;;;0.10;0.10;;;15.90;99.90;;;;;;5115728;28;20028;-74
2022/09/10 01:01:12;;;;;;;1.45;0.35;;;15.80;99.90;;;;;;5116083;28;20020;-73
2022/09/10 01:03:42;;;;;;;0.00;0.00;;;15.70;99.90;;;;;;5115793;28;20044;-73
2022/09/10 01:06:08;;;;;;;0.10;0.10;;;15.70;99.90;;;;;;5116120;28;20023;-74
2022/09/10 01:08:34;;;;;;;6.43;0.15;;;;;;;;;;5115021;28;20027;-74
2022/09/10 01:11:03;;;;;;;0.30;0.30;;;15.50;99.90;;;;;;5095755;28;20038;-73
2022/09/10 01:13:47;;;;;;;0.20;0.20;;;15.40;99.90;;;;;;5114096;28;20016;-72
2022/09/10 01:16:32;;;;;;;0.35;0.20;;;15.40;99.90;;;;;;5114000;28;20023;-73
2022/09/10 01:19:27;;;;;;;0.10;0.10;;;15.10;99.90;;;;;;5113784;28;20020;-73
2022/09/10 01:22:04;;;;;;;1.85;0.75;;;14.80;99.90;;;;;;5113805;28;20026;-73
2022/09/10 01:25:00;;;;;;;0.10;0.10;;;14.60;99.90;;;;;;5113927;28;20012;-73
2022/09/10 01:27:35;;;;;;;0.20;0.20;;;14.30;99.90;;;;;;5095581;28;20026;-74
2022/09/10 01:30:03;;;;;;;0.20;0.20;;;14.20;99.90;;;;;;5113688;28;20044;-73
2022/09/10 01:32:52;;;;;;;0.33;0.20;;;14.00;99.90;;;;;;5113709;28;20020;-73
2022/09/10 01:35:19;;;;;;;0.00;0.00;;;;;;;;;;5113640;28;20074;-74
2022/09/10 01:37:53;;;;;;;0.10;0.10;;;13.90;99.90;;;;;;5115993;28;20024;-73
2022/09/10 01:40:28;;;;;;;0.10;0.10;;;13.80;99.90;;;;;;5117736;28;20047;-73
2022/09/10 01:43:03;;;;;;;0.13;0.13;;;13.80;99.90;;;;;;5117738;28;20035;-74
2022/09/10 01:45:47;;;;;;;0.10;0.10;;;13.80;99.90;;;;;;5117803;28;20468;-73
2022/09/10 01:48:49;;;;;;;1.35;0.88;;;13.70;99.90;;;;;;5099737;28;20035;-74
2022/09/10 01:51:34;;;;;;;0.40;0.40;;;13.90;99.90;;;;;;5099351;28;20027;-75
2022/09/10 01:54:23;;;;;;;6.93;0.55;;;13.90;99.90;;;;;;5117629;28;20368;-73
2022/09/10 01:57:08;;;;;;;0.00;0.00;;;13.90;99.90;;;;;;5117231;28;20055;-73
2022/09/10 02:00:10;;;;;;;0.17;0.17;;;14.00;99.90;;;;;;5117503;28;20034;-74
2022/09/10 02:02:43;;;;;;;0.80;0.50;;;13.90;99.90;;;;;;5096065;28;20511;-72
2022/09/10 02:05:10;;;;;;;0.10;0.10;;;13.90;99.90;;;;;;5117118;28;20051;-73
2022/09/10 02:07:36;;;;;;;0.10;0.10;;;14.00;99.90;;;;;;5117453;28;20020;-73
2022/09/10 02:10:07;;;;;;;1.98;0.30;;;14.00;99.90;;;;;;5117115;28;20029;-73
2022/09/10 02:12:34;;;;;;;0.40;0.40;;;14.00;99.90;;;;;;5117482;28;20023;-73
2022/09/10 02:15:00;;;;;;;0.20;0.20;;;14.10;99.90;;;;;;5117098;28;20103;-73
2022/09/10 02:17:33;;;;;;;0.32;0.32;;;14.10;99.90;;;;;;5117066;28;20019;-73
2022/09/10 02:20:02;;;;;;;0.10;0.10;;;14.10;99.90;;;;;;5116970;28;20027;-73
2022/09/10 02:22:30;;;;;;;0.22;0.22;;;14.10;99.90;;;;;;5116933;28;20028;-73
2022/09/10 02:24:56;;;;;;;0.68;0.40;;;14.10;99.90;;;;;;5117198;28;20100;-73
2022/09/10 02:27:24;;;;;;;0.40;0.35;;;14.10;99.90;;;;;;5116909;28;20028;-74
2022/09/10 02:29:50;;;;;;;0.20;0.20;;;14.10;99.90;;;;;;5116855;28;20035;-73
2022/09/10 02:32:16;;;;;;;0.28;0.28;;;14.10;99.90;;;;;;5116806;28;20027;-72
2022/09/10 02:34:41;;;;;;;0.85;0.85;;;14.20;99.90;;;;;;5116762;28;20084;-73
2022/09/10 02:37:07;;;;;;;0.52;0.38;;;14.10;99.90;;;;;;5117011;28;20020;-73
2022/09/10 02:39:34;;;;;;;0.20;0.10;;;14.20;99.90;;;;;;5116797;28;20471;-73
2022/09/10 02:42:00;;;;;;;0.17;0.13;;;14.20;99.90;;;;;;5098291;28;20024;-72
2022/09/10 02:44:27;;;;;;;0.30;0.30;;;14.30;99.90;;;;;;5116724;28;20020;-73
2022/09/10 02:46:53;;;;;;;0.43;0.43;;;14.30;99.90;;;;;;5116597;28;20027;-73
2022/09/10 02:49:19;;;;;;;0.30;0.30;;;14.30;99.90;;;;;;5115893;28;20034;-73
2022/09/10 02:51:45;;;;;;;0.20;0.20;;;14.30;99.90;;;;;;5116384;28;20098;-73
2022/09/10 02:54:11;;;;;;;0.30;0.30;;;14.30;99.90;;;;;;5116444;28;20479;-73
2022/09/10 02:56:37;;;;;;;0.10;0.10;;;14.20;99.90;;;;;;5116466;28;20027;-73
2022/09/10 02:59:02;;;;;;;0.08;0.08;;;14.20;99.90;;;;;;5116447;28;20034;-73
2022/09/10 03:01:28;;;;;;;0.38;0.38;;;14.20;99.90;;;;;;5116528;28;20042;-73
2022/09/10 03:03:57;;;;;;;0.60;0.60;;;14.30;99.90;;;;;;5118708;28;20039;-74
2022/09/10 03:06:24;;;;;;;1.00;0.22;;;14.30;99.90;;;;;;5117376;28;20423;-73
2022/09/10 03:08:50;;;;;;;1.25;0.55;;;14.30;99.90;;;;;;5097754;28;20030;-73
2022/09/10 03:11:16;;;;;;;0.40;0.40;;;14.30;99.90;;;;;;5116210;28;20097;-73
2022/09/10 03:13:44;;;;;;;0.10;0.10;;;14.20;99.90;;;;;;5116251;28;20031;-73
2022/09/10 03:16:12;;;;;;;0.10;0.10;;;14.30;99.90;;;;;;5116090;28;20031;-73
2022/09/10 03:18:39;;;;;;;0.20;0.10;;;14.20;99.90;;;;;;5116173;28;20020;-73
2022/09/10 03:21:17;;;;;;;0.10;0.10;;;14.20;99.90;;;;;;5116031;28;20019;-73
2022/09/10 03:23:45;;;;;;;0.10;0.10;;;14.30;99.90;;;;;;5116415;28;20058;-73
2022/09/10 03:26:13;;;;;;;2.23;0.50;;;14.30;99.90;;;;;;5117104;28;20102;-73
2022/09/10 03:28:40;;;;;;;0.35;0.35;;;14.30;99.90;;;;;;5121030;28;20063;-73
2022/09/10 03:31:07;;;;;;;8.88;0.38;;;14.30;99.90;;;;;;5122066;28;20020;-74
2022/09/10 03:33:33;;;;;;;2.92;0.47;;;14.30;99.90;;;;;;5122280;28;20028;-73
2022/09/10 03:36:00;;;;;;;1.85;0.73;;;14.30;99.90;;;;;;5117983;28;20096;-73
2022/09/10 03:38:26;;;;;;;2.78;1.17;;;14.30;99.90;;;;;;5116085;28;20020;-73
2022/09/10 03:40:52;;;;;;;0.22;0.20;;;14.30;99.90;;;;;;5115502;28;20042;-73
2022/09/10 03:43:19;;;;;;;1.15;0.40;;;14.30;99.90;;;;;;5097070;28;20019;-73
2022/09/10 03:45:47;;;;;;;0.13;0.13;;;14.20;99.90;;;;;;5115648;28;20051;-73
2022/09/10 03:48:15;;;;;;;0.00;0.00;;;14.10;99.90;;;;;;5115270;28;20384;-73
2022/09/10 03:50:42;;;;;;;0.40;0.20;;;14.00;99.90;;;;;;5115072;28;20028;-73
2022/09/10 03:53:09;;;;;;;4.07;0.30;;;14.00;99.90;;;;;;5115298;28;20460;-73
2022/09/10 03:55:35;;;;;;;0.20;0.20;;;14.00;99.90;;;;;;5115434;28;20024;-73
2022/09/10 03:58:00;;;;;;;0.35;0.10;;;14.00;99.90;;;;;;5115270;28;20487;-73
2022/09/10 04:00:26;;;;;;;0.00;0.00;;;14.10;99.90;;;;;;5114442;28;20024;-73
2022/09/10 04:02:52;;;;;;;5.65;0.28;;;14.00;99.90;;;;;;5115062;28;20068;-72
2022/09/10 04:05:18;;;;;;;0.22;0.22;;;14.00;99.90;;;;;;5114956;28;20511;-73
2022/09/10 04:07:44;;;;;;;0.40;0.30;;;14.10;99.90;;;;;;5096813;28;20066;-73
2022/09/10 04:10:12;;;;;;;0.00;0.00;;;14.10;99.90;;;;;;5114870;28;20059;-73
2022/09/10 04:12:38;;;;;;;1.80;0.13;;;14.10;99.90;;;;;;5114997;28;20034;-73
2022/09/10 04:15:04;;;;;;;0.32;0.30;;;14.10;99.90;;;;;;5114807;28;20030;-73
2022/09/10 04:17:30;;;;;;;0.20;0.20;;;14.10;99.90;;;;;;5114068;28;20139;-73
2022/09/10 04:19:56;;;;;;;0.40;0.30;;;14.10;99.90;;;;;;5114895;28;20468;-73
2022/09/10 04:22:24;;;;;;;0.68;0.52;;;14.10;99.90;;;;;;5114606;28;20031;-73
2022/09/10 04:24:50;;;;;;;0.10;0.10;;;14.10;99.90;;;;;;5114312;28;20027;-74
2022/09/10 04:27:15;;;;;;;0.43;0.35;;;14.10;99.90;;;;;;5114822;28;20426;-73
2022/09/10 04:29:41;;;;;;;0.20;0.20;;;14.10;99.90;;;;;;5114638;28;20051;-73
2022/09/10 04:32:08;;;;;;;0.65;0.20;;;14.00;99.90;;;;;;5114659;28;20102;-73
2022/09/10 04:34:33;;;;;;;0.30;0.30;;;14.00;99.90;;;;;;5114559;28;20028;-73
2022/09/10 04:37:00;;;;;;;0.20;0.20;;;14.10;99.90;;;;;;5114478;28;20066;-73
2022/09/10 04:39:25;;;;;;;0.50;0.50;;;13.90;99.90;;;;;;5114777;28;20035;-74
2022/09/10 04:41:51;;;;;;;3.25;0.70;;;13.90;99.90;;;;;;5114548;28;20019;-73
2022/09/10 04:44:18;;;;;;;0.40;0.40;;;14.00;99.90;;;;;;5096421;28;20020;-73
2022/09/10 04:46:44;;;;;;;2.47;1.02;;;13.90;99.90;;;;;;5114316;28;20019;-73
2022/09/10 04:49:10;;;;;;;0.30;0.30;;;13.90;99.90;;;;;;5114251;28;20433;-73
2022/09/10 04:51:36;;;;;;;0.22;0.22;;;13.90;99.90;;;;;;5096112;28;20027;-73
2022/09/10 04:54:01;;;;;;;1.58;1.15;;;13.80;99.90;;;;;;5114830;28;20050;-73
2022/09/10 04:56:27;;;;;;;0.47;0.35;;;13.90;99.90;;;;;;5096000;28;20023;-73
2022/09/10 04:58:53;;;;;;;1.35;0.80;;;13.80;99.90;;;;;;5114360;28;20053;-74
2022/09/10 05:01:18;;;;;;;7.53;0.40;;;13.80;99.90;;;;;;5095883;28;20016;-73
2022/09/10 05:03:44;;;;;;;0.22;0.22;;;13.90;99.90;;;;;;5114016;28;20164;-73
2022/09/10 05:06:10;;;;;;;0.10;0.10;;;13.80;99.90;;;;;;5113951;28;20019;-73
2022/09/10 05:08:35;;;;;;;5.35;0.50;;;13.90;99.90;;;;;;5114092;28;20030;-73
2022/09/10 05:11:01;;;;;;;0.30;0.30;;;13.90;99.90;;;;;;5116057;28;20034;-73
2022/09/10 05:13:30;;;;;;;4.85;0.55;;;13.90;99.90;;;;;;5102470;28;20023;-73
2022/09/10 05:15:57;;;;;;;5.72;0.22;;;14.10;99.90;;;;;;5120843;28;20106;-73
2022/09/10 05:18:25;;;;;;;0.70;0.20;;;14.10;99.90;;;;;;5120872;28;20044;-73
2022/09/10 05:20:51;;;;;;;4.40;0.60;;;14.10;99.90;;;;;;5120785;28;20135;-74
2022/09/10 05:23:17;;;;;;;0.43;0.43;;;14.10;99.90;;;;;;5120778;28;20028;-75
2022/09/10 05:25:43;;;;;;;0.65;0.43;;;14.20;99.90;;;;;;5102496;28;20087;-74
2022/09/10 05:28:10;;;;;;;0.10;0.10;;;14.20;99.90;;;;;;5102222;28;20119;-73
2022/09/10 05:30:35;;;;;;;0.10;0.10;;;14.30;99.90;;;;;;5120677;28;20034;-74
2022/09/10 05:33:01;;;;;;;0.65;0.65;;;14.30;99.90;;;;;;5120548;28;20028;-73
2022/09/10 05:35:27;;;;;;;0.90;0.90;;;14.40;99.90;;;;;;5120566;28;20072;-73
2022/09/10 05:37:56;;;;;;;1.02;0.68;;;14.50;99.90;;;;;;5120488;28;20080;-74
2022/09/10 05:40:21;;;;;;;0.10;0.10;;;14.40;99.90;;;;;;5120586;28;20016;-73
2022/09/10 05:42:48;;;;;;;0.20;0.20;;;14.40;99.90;;;;;;5102053;28;20114;-73
2022/09/10 05:45:14;;;;;;;1.35;0.65;;;14.50;99.90;;;;;;5120653;28;20019;-73
2022/09/10 05:47:40;;;;;;;0.17;0.17;;;14.50;99.90;;;;;;5120664;28;20389;-73
2022/09/10 05:50:06;;;;;;;4.22;0.30;;;14.50;99.90;;;;;;5120272;28;20088;-74
2022/09/10 05:52:31;;;;;;;1.05;0.28;;;14.60;99.90;;;;;;5120455;28;20032;-73
2022/09/10 05:54:58;;;;;;;0.43;0.43;;;14.70;99.90;;;;;;5120480;28;20524;-73
2022/09/10 05:57:24;;;;;;;0.68;0.68;;;14.70;99.90;;;;;;5102220;28;20023;-73
2022/09/10 05:59:49;;;;;;;5.60;0.40;;;14.80;99.90;;;;;;5102060;28;20039;-73
2022/09/10 06:02:19;;;;;;;0.22;0.22;;;14.80;99.90;;;;;;5120475;28;20028;-74
2022/09/10 06:04:44;;;;;;;0.75;0.40;;;14.80;99.90;;;;;;5102073;28;20051;-74
2022/09/10 06:07:10;;;;;;;0.35;0.28;;;14.80;99.90;;;;;;5120288;28;20030;-73
2022/09/10 06:09:36;;;;;;;2.05;0.77;;;14.90;99.90;;;;;;5122157;28;20051;-73
2022/09/10 06:12:02;;;;;;;0.20;0.20;;;14.90;99.90;;;;;;5130866;28;20022;-76
2022/09/10 06:14:28;;;;;;;0.22;0.20;;;14.80;99.90;;;;;;5130599;28;20023;-73
2022/09/10 06:16:54;;;;;;;0.45;0.15;;;14.80;99.90;;;;;;5130566;28;20039;-73
2022/09/10 06:19:20;;;;;;;5.75;0.70;;;14.90;99.90;;;;;;5112895;28;20189;-73
2022/09/10 06:21:48;;;;;;;1.92;0.22;;;14.90;99.90;;;;;;5129855;28;20084;-74
2022/09/10 06:24:14;;;;;;;0.40;0.28;;;15.00;99.90;;;;;;5107935;28;20246;-74
2022/09/10 06:26:40;;;;;;;1.10;0.30;;;15.00;99.90;;;;;;5127029;28;20064;-74
2022/09/10 06:29:06;;;;;;;0.30;0.30;;;15.10;99.90;;;;;;5108406;28;20067;-74
2022/09/10 06:31:33;;;;;;;0.43;0.43;;;15.10;99.90;;;;;;5125506;28;20016;-74
2022/09/10 06:34:00;;;;;;;1.25;0.70;;;15.00;99.90;;;;;;5117733;28;20020;-73
2022/09/10 06:36:27;;;;;;;0.40;0.40;;;15.00;99.90;;;;;;5116764;28;20019;-73
2022/09/10 06:38:56;;;;;;;0.35;0.32;;;15.10;99.90;;;;;;5098408;28;20019;-74
2022/09/10 06:41:23;;;;;;;4.70;0.25;;;15.20;99.90;;;;;;5098348;28;20437;-73
2022/09/10 06:43:49;;;;;;;0.25;0.25;;;15.20;99.90;;;;;;5098313;28;20024;-74
2022/09/10 06:46:17;;;;;;;0.22;0.22;;;15.30;99.90;;;;;;5116484;28;20471;-73
2022/09/10 06:48:44;;;;;;;0.85;0.22;;;15.30;99.90;;;;;;5116460;28;20031;-73
2022/09/10 06:51:11;;;;;;;0.68;0.68;;;15.30;99.90;;;;;;5116658;28;20050;-75
2022/09/10 06:53:38;;;;;;;3.92;0.40;;;15.30;99.90;;;;;;5116697;28;20107;-74
2022/09/10 06:56:07;;;;;;;0.20;0.10;;;15.40;99.90;;;;;;5116253;28;20023;-75
2022/09/10 06:58:34;;;;;;;0.40;0.40;;;15.50;99.90;;;;;;5116409;28;20161;-76
2022/09/10 07:01:17;;;;;;;0.47;0.47;;;15.40;99.90;;;;;;5097980;28;20020;-76
2022/09/10 07:03:44;;;;;;;0.25;0.25;;;15.50;99.90;;;;;;5115855;28;20047;-76
2022/09/10 07:06:14;;;;;;;2.03;0.57;;;15.50;99.90;;;;;;5097928;28;20076;-77
2022/09/10 07:08:39;;;;;;;1.88;0.50;;;15.50;99.90;;;;;;5098283;28;20092;-76
2022/09/10 07:11:10;;;;;;;0.25;0.25;;;15.50;99.90;;;;;;5117415;28;20016;-76
2022/09/10 07:13:36;;;;;;;0.05;0.05;;;15.50;99.90;;;;;;5117616;28;20024;-77
2022/09/10 07:16:02;;;;;;;0.47;0.47;;;15.50;99.90;;;;;;5117388;28;20026;-77
2022/09/10 07:18:29;;;;;;;7.22;0.60;;;15.50;99.90;;;;;;5098723;28;20559;-77
2022/09/10 07:21:12;;;;;;;0.20;0.20;;;15.60;99.90;;;;;;5116091;28;20084;-76
2022/09/10 07:23:38;;;;;;;0.57;0.22;;;15.60;99.90;;;;;;5115870;28;20533;-76
2022/09/10 07:26:06;;;;;;;0.15;0.15;;;15.60;99.90;;;;;;5115917;28;20027;-76
2022/09/10 07:28:33;;;;;;;0.32;0.20;;;15.60;99.90;;;;;;5115918;28;20023;-76
2022/09/10 07:30:58;;;;;;;0.20;0.20;;;15.60;99.90;;;;;;5115864;28;20039;-76
2022/09/10 07:33:24;;;;;;;0.10;0.10;;;15.50;99.90;;;;;;5115873;28;20016;-76
2022/09/10 07:35:50;;;;;;;0.10;0.10;;;;;;;;;;5114502;28;20027;-75
2022/09/10 07:38:16;;;;;;;0.40;0.40;;;15.60;99.90;;;;;;5115535;28;20028;-76
2022/09/10 07:40:47;;;;;;;0.25;0.25;;;15.50;99.90;;;;;;5116689;28;20147;-76
2022/09/10 07:43:13;;;;;;;0.10;0.10;;;15.60;99.90;;;;;;5117621;28;20019;-76
2022/09/10 07:45:40;;;;;;;0.50;0.50;;;15.60;99.90;;;;;;5118549;28;20031;-77
2022/09/10 07:48:06;;;;;;;0.30;0.30;;;15.60;99.90;;;;;;5119527;28;20015;-77
2022/09/10 07:50:31;;;;;;;0.20;0.20;;;15.70;99.90;;;;;;5117049;28;20364;-76
2022/09/10 07:52:57;;;;;;;0.38;0.30;;;15.80;99.90;;;;;;5117495;28;20015;-76
2022/09/10 07:55:23;;;;;;;0.22;0.10;;;15.80;99.90;;;;;;5104377;28;20095;-76
2022/09/10 07:57:49;;;;;;;0.30;0.30;;;15.90;99.90;;;;;;5115335;28;20031;-76
2022/09/10 08:00:17;;;;;;;1.05;0.45;;;15.80;99.90;;;;;;5097010;28;20055;-76
2022/09/10 08:02:43;;;;;;;0.73;0.73;;;15.70;99.90;;;;;;5117680;28;20483;-74
2022/09/10 08:05:10;;;;;;;4.45;1.13;;;15.30;99.90;;;;;;5100232;28;20108;-72
2022/09/10 08:07:39;;;;;;;1.00;0.47;;;14.90;99.90;;;;;;5100383;28;20026;-75
2022/09/10 08:10:08;;;;;;;0.30;0.30;;;14.90;99.90;;;;;;5097425;28;20038;-76
2022/09/10 08:12:38;;;;;;;0.10;0.10;;;14.70;99.90;;;;;;5117670;28;20019;-75
2022/09/10 08:15:06;;;;;;;3.38;0.85;;;14.50;99.90;;;;;;5117777;28;20083;-76
2022/09/10 08:17:33;;;;;;;0.60;0.40;;;14.40;99.90;;;;;;5121940;28;20020;-76
2022/09/10 08:20:00;;;;;;;3.10;1.10;;;14.40;99.90;;;;;;5116882;28;20024;-76
2022/09/10 08:22:26;;;;;;;0.28;0.28;;;14.40;99.90;;;;;;5115895;28;20020;-75
2022/09/10 08:24:52;;;;;;;0.50;0.50;;;;;;;;;;5118291;28;20427;-75
2022/09/10 08:27:18;;;;;;;0.20;0.20;;;14.20;99.90;;;;;;5096711;28;20012;-74
2022/09/10 08:29:43;;;;;;;0.22;0.22;;;14.20;99.90;;;;;;5116098;28;20045;-76
2022/09/10 08:32:12;;;;;;;1.02;0.40;;;14.10;99.90;;;;;;5121038;28;20027;-74
2022/09/10 08:34:39;;;;;;;2.63;0.68;;;14.10;99.90;;;;;;5115621;28;20027;-73
2022/09/10 08:37:05;;;;;;;0.20;0.20;;;14.10;99.90;;;;;;5100871;28;20128;-74
2022/09/10 08:39:31;;;;;;;0.50;0.50;;;14.20;99.90;;;;;;5108319;28;20026;-76
2022/09/10 08:42:08;;;;;;;0.82;0.82;;;14.30;99.90;;;;;;5123926;28;20016;-77
2022/09/10 08:44:42;;;;;;;0.20;0.20;;;14.60;99.90;;;;;;5121659;28;20023;-79
2022/09/10 08:47:36;;;;;;;0.35;0.30;;;14.60;99.90;;;;;;5115794;28;20069;-75
2022/09/10 08:50:01;;;;;;;0.90;0.60;;;14.80;99.90;;;;;;5117206;28;20043;-74
2022/09/10 08:52:49;;;;;;;0.30;0.30;;;15.10;99.90;;;;;;5099931;28;20023;-74
2022/09/10 08:55:23;;;;;;;1.10;1.00;;;15.40;99.90;;;;;;5121109;28;20024;-74
2022/09/10 08:57:52;;;;;;;0.65;0.65;;;15.70;99.90;;;;;;5121077;28;20023;-74
2022/09/10 09:00:24;;;;;;;1.90;0.88;;;16.10;99.90;;;;;;5120650;28;20023;-73
2022/09/10 09:03:13;;;;;;;0.25;0.20;;;16.40;99.90;;;;;;5117671;28;20021;-74
2022/09/10 09:05:46;;;;;;;0.13;0.13;;;16.60;99.90;;;;;;5073723;28;20067;-73
2022/09/10 09:08:18;;;;;;;0.22;0.22;;;16.60;99.90;;;;;;5073291;28;20027;-73
2022/09/10 09:10:48;;;;;;;0.38;0.20;;;16.90;99.90;;;;;;5080065;28;20024;-73
2022/09/10 09:13:14;;;;;;;6.50;0.43;;;16.70;99.90;;;;;;5083887;28;20039;-73
2022/09/10 09:16:08;;;;;;;0.43;0.43;;;16.60;99.90;;;;;;5074245;28;20028;-72
2022/09/10 09:19:00;;;;;;;2.40;1.10;;;16.60;99.90;;;;;;5073459;28;20107;-72
2022/09/10 09:21:32;;;;;;;0.57;0.45;;;16.60;99.90;;;;;;5073455;28;20161;-72
2022/09/10 09:23:58;;;;;;;0.22;0.22;;;16.70;99.90;;;;;;5073503;28;20462;-73
2022/09/10 09:26:35;;;;;;;0.25;0.25;;;16.80;99.90;;;;;;5073542;28;20028;-73
2022/09/10 09:29:12;;;;;;;0.13;0.13;;;16.80;99.90;;;;;;5072229;28;20481;-73
2022/09/10 09:31:43;;;;;;;0.10;0.10;;;17.40;99.90;;;;;;5073444;28;20021;-73
2022/09/10 09:34:31;;;;;;;0.15;0.15;;;17.30;99.90;;;;;;5073274;28;20354;-73
2022/09/10 09:37:02;;;;;;;0.85;0.65;;;17.50;99.90;;;;;;5074744;28;20020;-71
2022/09/10 09:39:40;;;;;;;2.22;0.22;;;17.60;99.90;;;;;;5076486;28;20028;-73
2022/09/10 09:42:31;;;;;;;1.15;0.20;;;17.50;99.90;;;;;;5076514;28;20103;-72
2022/09/10 09:45:20;;;;;;;1.35;0.98;;;17.40;99.90;;;;;;5075491;28;20378;-72
2022/09/10 09:47:48;;;;;;;0.50;0.45;;;17.70;99.90;;;;;;5075341;28;20028;-74
2022/09/10 09:50:17;;;;;;;0.20;0.10;;;17.90;99.90;;;;;;5074822;28;20071;-73
2022/09/10 09:52:43;;;;;;;1.30;0.17;;;17.80;99.90;;;;;;5074214;28;20048;-74
2022/09/10 09:55:40;;;;;;;1.65;0.30;;;17.80;99.90;;;;;;5073197;28;20031;-73
2022/09/10 09:58:21;;;;;;;1.50;0.47;;;17.60;99.90;;;;;;5073891;28;20048;-74
2022/09/10 10:00:52;;;;;;;0.10;0.10;;;17.70;99.90;;;;;;5077289;28;20025;-73
2022/09/10 10:03:27;;;;;;;2.83;0.30;;;17.60;99.90;;;;;;5078480;28;20019;-73
2022/09/10 10:06:02;;;;;;;1.85;1.75;;;17.60;99.90;;;;;;5117758;28;20035;-73
2022/09/10 10:08:41;;;;;;;0.10;0.10;;;17.50;99.90;;;;;;5099291;28;20027;-73
2022/09/10 10:11:08;;;;;;;0.10;0.10;;;17.50;99.90;;;;;;5099228;28;20023;-73
2022/09/10 10:13:45;;;;;;;0.10;0.10;;;17.50;99.90;;;;;;5117541;28;20094;-73
2022/09/10 10:16:32;;;;;;;2.72;0.52;;;17.80;99.90;;;;;;5117460;28;20023;-74
2022/09/10 10:18:58;;;;;;;1.02;0.93;;;17.90;99.90;;;;;;5117669;28;20016;-74
2022/09/10 10:21:32;;;;;;;0.30;0.30;;;17.80;99.90;;;;;;5117257;28;20080;-73
2022/09/10 10:23:58;;;;;;;0.00;0.00;;;17.80;99.90;;;;;;5117401;28;20035;-73
2022/09/10 10:26:31;;;;;;;0.45;0.13;;;18.10;99.90;;;;;;5117425;28;20027;-74
2022/09/10 10:29:17;;;;;;;1.38;0.22;;;18.80;99.90;;;;;;5117153;28;20555;-73
2022/09/10 10:31:45;;;;;;;0.20;0.20;;;19.10;99.90;;;;;;5117147;28;20118;-76
2022/09/10 10:34:14;;;;;;;3.97;0.15;;;18.90;99.90;;;;;;5117029;28;20015;-74
2022/09/10 10:36:54;;;;;;;0.10;0.10;;;19.00;99.90;;;;;;5117071;28;20027;-74
2022/09/10 10:39:51;;;;;;;4.72;0.52;;;19.10;99.90;;;;;;5117059;28;20276;-74
2022/09/10 10:42:26;;;;;;;0.30;0.30;;;19.00;99.90;;;;;;5116837;28;20597;-75
2022/09/10 10:45:13;;;;;;;0.47;0.47;;;19.40;99.90;;;;;;5117718;28;20076;-74
2022/09/10 10:47:44;;;;;;;0.20;0.20;;;19.60;99.90;;;;;;5115986;28;20015;-74
2022/09/10 10:50:18;;;;;;;0.65;0.28;;;19.90;99.90;;;;;;5097733;28;20472;-74
2022/09/10 10:52:56;;;;;;;0.38;0.38;;;20.20;99.90;;;;;;5116015;28;20080;-74
2022/09/10 10:55:24;;;;;;;0.40;0.40;;;19.80;99.90;;;;;;5116032;28;20047;-74
2022/09/10 10:58:21;;;;;;;0.45;0.15;;;19.70;99.90;;;;;;5116430;28;20091;-73
2022/09/10 11:01:10;;;;;;;0.50;0.50;;;19.40;99.90;;;;;;5115899;28;20016;-73
2022/09/10 11:03:59;;;;;;;0.10;0.10;;;19.60;99.90;;;;;;5116122;28;20100;-73
2022/09/10 11:06:29;;;;;;;0.35;0.35;;;19.70;99.90;;;;;;5125463;28;20095;-74
2022/09/10 11:09:10;;;;;;;0.20;0.20;;;19.50;99.90;;;;;;5122076;28;20031;-76
2022/09/10 11:12:01;;;;;;;6.28;0.55;;;19.50;99.90;;;;;;5117772;28;20019;-72
2022/09/10 11:14:34;;;;;;;5.03;0.30;;;19.40;99.90;;;;;;5115482;28;20019;-75
2022/09/10 11:17:17;;;;;;;0.20;0.20;;;19.90;99.90;;;;;;5115675;28;20094;-74
2022/09/10 11:19:50;;;;;;;0.17;0.17;;;20.30;99.90;;;;;;5115723;28;20039;-77
2022/09/10 11:22:26;;;;;;;0.20;0.20;;;20.10;99.90;;;;;;5115613;28;20042;-74
2022/09/10 11:25:08;;;;;;;0.15;0.15;;;19.80;99.90;;;;;;5115387;28;20039;-72
2022/09/10 11:27:45;;;;;;;1.88;1.10;;;20.10;99.90;;;;;;5120829;28;20038;-74
2022/09/10 11:30:15;;;;;;;0.10;0.10;;;20.40;99.90;;;;;;5125546;28;20032;-73
2022/09/10 11:33:01;;;;;;;0.10;0.10;;;20.70;99.90;;;;;;5125984;28;20182;-74
2022/09/10 11:35:32;;;;;;;1.70;0.25;;;20.80;99.90;;;;;;5124563;28;20015;-73
2022/09/10 11:38:10;;;;;;;0.17;0.17;;;20.80;99.90;;;;;;5125194;28;20024;-73
2022/09/10 11:41:07;;;;;;;0.20;0.20;;;20.20;99.90;;;;;;5125989;28;20331;-73
2022/09/10 11:44:05;;;;;;;2.20;0.32;;;20.10;99.90;;;;;;5126192;28;20054;-74
2022/09/10 11:46:41;;;;;;;0.30;0.13;;;19.60;99.90;;;;;;5082900;28;20090;-73
2022/09/10 11:49:14;;;;;;;0.40;0.10;;;19.30;99.90;;;;;;5106977;28;20051;-74
2022/09/10 11:51:40;;;;;;;0.25;0.20;;;19.00;99.90;;;;;;5116115;28;20023;-74
2022/09/10 11:54:15;;;;;;;0.00;0.00;;;19.00;99.90;;;;;;5114921;28;20055;-74
2022/09/10 11:56:58;;;;;;;0.40;0.40;;;18.90;99.90;;;;;;5096417;28;20345;-75
2022/09/10 11:59:48;;;;;;;0.38;0.38;;;18.80;99.90;;;;;;5114780;28;20019;-73
2022/09/10 12:02:14;;;;;;;0.63;0.10;;;18.70;99.90;;;;;;5118358;28;20031;-73
2022/09/10 12:05:13;;;;;;;0.55;0.25;;;18.70;99.90;;;;;;5117794;28;20088;-73
2022/09/10 12:08:09;;;;;;;2.20;0.40;;;18.70;99.90;;;;;;5057916;28;20038;-73
2022/09/10 12:11:07;;;;;;;0.32;0.20;;;18.90;99.90;;;;;;5095870;28;20107;-74
2022/09/10 12:13:38;;;;;;;0.45;0.45;;;19.30;99.90;;;;;;5095846;28;20024;-73
2022/09/10 12:16:36;;;;;;;4.75;2.60;;;19.50;99.90;;;;;;5096014;28;20333;-73
2022/09/10 12:19:07;;;;;;;0.22;0.10;;;20.20;99.90;;;;;;5095853;28;20493;-74
2022/09/10 12:21:47;;;;;;;0.20;0.20;;;21.10;99.90;;;;;;5113503;28;20076;-74
2022/09/10 12:24:33;;;;;;;0.75;0.43;;;20.40;99.90;;;;;;5114317;28;20473;-74
2022/09/10 12:27:00;;;;;;;0.30;0.30;;;20.40;99.90;;;;;;5114292;28;20107;-74
2022/09/10 12:29:36;;;;;;;0.30;0.30;;;20.20;99.90;;;;;;5114764;28;20034;-73
2022/09/10 12:32:08;;;;;;;3.03;0.73;;;19.40;99.90;;;;;;5096607;28;20020;-74
2022/09/10 12:34:38;;;;;;;0.13;0.13;;;19.60;99.90;;;;;;5114670;28;20051;-73
2022/09/10 12:37:04;;;;;;;0.22;0.22;;;19.70;99.90;;;;;;5114722;28;20055;-73
2022/09/10 12:39:30;;;;;;;0.35;0.22;;;19.40;99.90;;;;;;5114600;28;20027;-74
2022/09/10 12:42:19;;;;;;;0.10;0.08;;;19.50;99.90;;;;;;5096404;28;20073;-74
2022/09/10 12:44:45;;;;;;;0.08;0.08;;;19.70;99.90;;;;;;5095664;28;20176;-74
2022/09/10 12:47:14;;;;;;;0.30;0.30;;;19.50;99.90;;;;;;5096234;28;20474;-74
2022/09/10 12:49:59;;;;;;;0.30;0.20;;;;;;;;;;5114339;28;20119;-74
2022/09/10 12:52:55;;;;;;;0.15;0.15;;;18.70;99.90;;;;;;5096116;28;20376;-74
2022/09/10 12:55:34;;;;;;;0.13;0.10;;;19.10;99.90;;;;;;5113879;28;20130;-74
2022/09/10 12:58:18;;;;;;;0.20;0.20;;;19.50;99.90;;;;;;5096010;28;20019;-74
2022/09/10 13:00:48;;;;;;;0.70;0.40;;;19.20;99.90;;;;;;5096075;28;20028;-73
2022/09/10 13:03:15;;;;;;;;;;;19.10;99.90;;;;;;5114644;28;20051;-73
2022/09/10 13:05:45;;;;;;;0.73;0.20;;;19.10;99.90;;;;;;5114237;28;19980;-74
2022/09/10 13:08:20;;;;;;;0.85;0.63;;;19.00;99.90;;;;;;5114364;28;20099;-74
2022/09/10 13:11:07;;;;;;;0.43;0.43;;;19.10;99.90;;;;;;5114185;28;20031;-74